ALK123 VCBI-VOMM
Flight info
| Callsign | ALK123 |
|---|---|
| Flight time | 1h 2m |
| Altitude | 37000 |
| Route | SAGOR A465 AKMIL AKMIL2F |
| Aircraft | A20N/M-SDE2E3FGHIRWXY/LB1 |
Departure
| Time | 2026-04-24 19:27 |
|---|---|
| Airport | Bandaranaike International Colombo Airport (VCBI) |
Arrival
| Time | 2026-04-24 20:29 |
|---|---|
| Airport | Chennai International Airport (VOMM) |
| Time | Latitude | Longitude | Altitude | Speed | Heading |
|---|---|---|---|---|---|
| 2026-04-24 18:58 | 7.17615 | 79.88567 | 30 ft | 0 kts | 217° |
| 2026-04-24 19:07 | 7.17630 | 79.88579 | 30 ft | 3 kts | 217° |
| 2026-04-24 19:08 | 7.17645 | 79.88591 | 30 ft | 3 kts | 217° |
| 2026-04-24 19:08 | 7.17659 | 79.88601 | 30 ft | 3 kts | 217° |
| 2026-04-24 19:08 | 7.17668 | 79.88608 | 30 ft | 0 kts | 217° |
| 2026-04-24 19:08 | 7.17615 | 79.88567 | 30 ft | 0 kts | 217° |
| 2026-04-24 19:16 | 7.17618 | 79.88570 | 30 ft | 3 kts | 217° |
| 2026-04-24 19:17 | 7.17633 | 79.88581 | 30 ft | 3 kts | 217° |
| 2026-04-24 19:17 | 7.17647 | 79.88592 | 30 ft | 3 kts | 217° |
| 2026-04-24 19:17 | 7.17661 | 79.88603 | 30 ft | 3 kts | 217° |
| 2026-04-24 19:17 | 7.17675 | 79.88614 | 30 ft | 3 kts | 217° |
| 2026-04-24 19:18 | 7.17684 | 79.88620 | 30 ft | 2 kts | 222° |
| 2026-04-24 19:18 | 7.17694 | 79.88635 | 30 ft | 3 kts | 261° |
| 2026-04-24 19:18 | 7.17692 | 79.88654 | 30 ft | 3 kts | 300° |
| 2026-04-24 19:18 | 7.17691 | 79.88657 | 30 ft | 0 kts | 308° |
| 2026-04-24 19:21 | 7.17718 | 79.88621 | 30 ft | 13 kts | 307° |
| 2026-04-24 19:21 | 7.17773 | 79.88550 | 30 ft | 13 kts | 311° |
| 2026-04-24 19:21 | 7.17826 | 79.88479 | 30 ft | 12 kts | 307° |
| 2026-04-24 19:21 | 7.17891 | 79.88440 | 30 ft | 11 kts | 14° |
| 2026-04-24 19:22 | 7.17936 | 79.88465 | 31 ft | 12 kts | 35° |
| 2026-04-24 19:22 | 7.18037 | 79.88533 | 30 ft | 13 kts | 30° |
| 2026-04-24 19:22 | 7.18110 | 79.88589 | 30 ft | 13 kts | 38° |
| 2026-04-24 19:22 | 7.18183 | 79.88650 | 30 ft | 14 kts | 39° |
| 2026-04-24 19:23 | 7.18262 | 79.88712 | 30 ft | 15 kts | 37° |
| 2026-04-24 19:23 | 7.18349 | 79.88778 | 30 ft | 16 kts | 38° |
| 2026-04-24 19:23 | 7.18434 | 79.88844 | 31 ft | 15 kts | 37° |
| 2026-04-24 19:23 | 7.18517 | 79.88908 | 31 ft | 15 kts | 37° |
| 2026-04-24 19:24 | 7.18600 | 79.88971 | 31 ft | 15 kts | 37° |
| 2026-04-24 19:24 | 7.18683 | 79.89034 | 31 ft | 15 kts | 37° |
| 2026-04-24 19:24 | 7.18766 | 79.89098 | 31 ft | 15 kts | 37° |
| 2026-04-24 19:24 | 7.18851 | 79.89164 | 31 ft | 15 kts | 36° |
| 2026-04-24 19:25 | 7.18936 | 79.89227 | 30 ft | 15 kts | 37° |
| 2026-04-24 19:25 | 7.19022 | 79.89293 | 30 ft | 15 kts | 37° |
| 2026-04-24 19:25 | 7.19107 | 79.89357 | 30 ft | 15 kts | 38° |
| 2026-04-24 19:25 | 7.19196 | 79.89404 | 30 ft | 14 kts | 350° |
| 2026-04-24 19:26 | 7.19262 | 79.89339 | 11 ft | 13 kts | 307° |
| 2026-04-24 19:26 | 7.19287 | 79.89274 | 30 ft | 10 kts | 231° |
| 2026-04-24 19:26 | 7.19176 | 79.89186 | 31 ft | 46 kts | 217° |
| 2026-04-24 19:26 | 7.18741 | 79.88855 | 32 ft | 109 kts | 218° |
| 2026-04-24 19:27 | 7.17985 | 79.88281 | 34 ft | 160 kts | 218° |
| 2026-04-24 19:27 | 7.17070 | 79.87553 | 400 ft | 166 kts | 217° |
| 2026-04-24 19:27 | 7.16168 | 79.86852 | 990 ft | 162 kts | 215° |
| 2026-04-24 19:27 | 7.15263 | 79.86191 | 1594 ft | 159 kts | 212° |
| 2026-04-24 19:28 | 7.14319 | 79.85471 | 2017 ft | 186 kts | 215° |
| 2026-04-24 19:28 | 7.13298 | 79.84539 | 2430 ft | 209 kts | 226° |
| 2026-04-24 19:28 | 7.12676 | 79.83113 | 2692 ft | 243 kts | 260° |
| 2026-04-24 19:28 | 7.12613 | 79.81311 | 3168 ft | 263 kts | 271° |
| 2026-04-24 19:29 | 7.13303 | 79.77647 | 4546 ft | 277 kts | 299° |
| 2026-04-24 19:29 | 7.14476 | 79.76108 | 5324 ft | 279 kts | 313° |
| 2026-04-24 19:29 | 7.16004 | 79.74913 | 6077 ft | 280 kts | 335° |
| 2026-04-24 19:30 | 7.17870 | 79.74382 | 6802 ft | 281 kts | 356° |
| 2026-04-24 19:30 | 7.19807 | 79.74557 | 7531 ft | 281 kts | 14° |
| 2026-04-24 19:30 | 7.21701 | 79.75088 | 8276 ft | 284 kts | 23° |
| 2026-04-24 19:30 | 7.23489 | 79.75955 | 9032 ft | 287 kts | 28° |
| 2026-04-24 19:31 | 7.25234 | 79.76966 | 9758 ft | 291 kts | 31° |
| 2026-04-24 19:31 | 7.27036 | 79.77946 | 10310 ft | 301 kts | 24° |
| 2026-04-24 19:31 | 7.29010 | 79.78823 | 10599 ft | 320 kts | 20° |
| 2026-04-24 19:31 | 7.31200 | 79.79448 | 10998 ft | 332 kts | 13° |
| 2026-04-24 19:32 | 7.33507 | 79.79787 | 11551 ft | 338 kts | 5° |
| 2026-04-24 19:32 | 7.35862 | 79.80067 | 12156 ft | 342 kts | 11° |
| 2026-04-24 19:32 | 7.38173 | 79.80672 | 12778 ft | 345 kts | 16° |
| 2026-04-24 19:32 | 7.40507 | 79.81276 | 13410 ft | 348 kts | 18° |
| 2026-04-24 19:33 | 7.42774 | 79.82152 | 13993 ft | 351 kts | 24° |
| 2026-04-24 19:33 | 7.44974 | 79.83247 | 14557 ft | 354 kts | 28° |
| 2026-04-24 19:33 | 7.47228 | 79.84264 | 15127 ft | 357 kts | 21° |
| 2026-04-24 19:33 | 7.49513 | 79.85279 | 15678 ft | 360 kts | 26° |
| 2026-04-24 19:34 | 7.51706 | 79.86517 | 16240 ft | 363 kts | 31° |
| 2026-04-24 19:34 | 7.53950 | 79.87704 | 16825 ft | 367 kts | 23° |
| 2026-04-24 19:34 | 7.56366 | 79.88559 | 17363 ft | 371 kts | 17° |
| 2026-04-24 19:34 | 7.58897 | 79.89126 | 17891 ft | 375 kts | 8° |
| 2026-04-24 19:35 | 7.61507 | 79.89379 | 18354 ft | 379 kts | 4° |
| 2026-04-24 19:35 | 7.64150 | 79.89517 | 18778 ft | 382 kts | 3° |
| 2026-04-24 19:35 | 7.66813 | 79.89629 | 19216 ft | 384 kts | 3° |
| 2026-04-24 19:35 | 7.69491 | 79.89757 | 19651 ft | 386 kts | 4° |
| 2026-04-24 19:36 | 7.72183 | 79.89919 | 20084 ft | 388 kts | 5° |
| 2026-04-24 19:36 | 7.74890 | 79.90110 | 20517 ft | 391 kts | 5° |
| 2026-04-24 19:36 | 7.77606 | 79.90313 | 20960 ft | 393 kts | 5° |
| 2026-04-24 19:36 | 7.80342 | 79.90525 | 21406 ft | 395 kts | 5° |
| 2026-04-24 19:37 | 7.83095 | 79.90742 | 21848 ft | 398 kts | 6° |
| 2026-04-24 19:37 | 7.85858 | 79.90960 | 22303 ft | 400 kts | 6° |
| 2026-04-24 19:37 | 7.88646 | 79.91182 | 22747 ft | 403 kts | 6° |
| 2026-04-24 19:37 | 7.91444 | 79.91403 | 23196 ft | 405 kts | 6° |
| 2026-04-24 19:38 | 7.94266 | 79.91628 | 23608 ft | 408 kts | 6° |
| 2026-04-24 19:38 | 7.97109 | 79.91861 | 23955 ft | 412 kts | 6° |
| 2026-04-24 19:38 | 7.99971 | 79.92099 | 24297 ft | 415 kts | 6° |
| 2026-04-24 19:38 | 8.02861 | 79.92338 | 24645 ft | 418 kts | 6° |
| 2026-04-24 19:39 | 8.05778 | 79.92576 | 24988 ft | 422 kts | 5° |
| 2026-04-24 19:39 | 8.08713 | 79.92812 | 25337 ft | 425 kts | 5° |
| 2026-04-24 19:39 | 8.11670 | 79.93048 | 25682 ft | 428 kts | 5° |
| 2026-04-24 19:39 | 8.14654 | 79.93286 | 26011 ft | 431 kts | 5° |
| 2026-04-24 19:40 | 8.17656 | 79.93519 | 26339 ft | 434 kts | 5° |
| 2026-04-24 19:40 | 8.20678 | 79.93751 | 26660 ft | 437 kts | 5° |
| 2026-04-24 19:40 | 8.23721 | 79.93992 | 26970 ft | 440 kts | 5° |
| 2026-04-24 19:40 | 8.26787 | 79.94239 | 27278 ft | 443 kts | 5° |
| 2026-04-24 19:41 | 8.29875 | 79.94488 | 27579 ft | 446 kts | 5° |
| 2026-04-24 19:41 | 8.32975 | 79.94738 | 27876 ft | 449 kts | 5° |
| 2026-04-24 19:41 | 8.36097 | 79.94988 | 28156 ft | 452 kts | 5° |
| 2026-04-24 19:41 | 8.39242 | 79.95240 | 28462 ft | 455 kts | 4° |
| 2026-04-24 19:42 | 8.42411 | 79.95492 | 28743 ft | 458 kts | 4° |
| 2026-04-24 19:42 | 8.45593 | 79.95743 | 29024 ft | 460 kts | 4° |
| 2026-04-24 19:42 | 8.48799 | 79.95996 | 29299 ft | 463 kts | 4° |
| 2026-04-24 19:42 | 8.50931 | 79.96164 | 29480 ft | 465 kts | 4° |
| 2026-04-24 19:43 | 8.54164 | 79.96418 | 29745 ft | 468 kts | 4° |
| 2026-04-24 19:43 | 8.57421 | 79.96674 | 29989 ft | 470 kts | 4° |
| 2026-04-24 19:43 | 8.60689 | 79.96937 | 30234 ft | 472 kts | 4° |
| 2026-04-24 19:43 | 8.63967 | 79.97202 | 30490 ft | 474 kts | 4° |
| 2026-04-24 19:44 | 8.67260 | 79.97469 | 30742 ft | 475 kts | 4° |
| 2026-04-24 19:44 | 8.70562 | 79.97735 | 30988 ft | 477 kts | 4° |
| 2026-04-24 19:44 | 8.73873 | 79.98000 | 31249 ft | 477 kts | 4° |
| 2026-04-24 19:44 | 8.77180 | 79.98265 | 31615 ft | 476 kts | 4° |
| 2026-04-24 19:45 | 8.80477 | 79.98529 | 31977 ft | 474 kts | 4° |
| 2026-04-24 19:45 | 8.83759 | 79.98792 | 32315 ft | 473 kts | 4° |
| 2026-04-24 19:45 | 8.87043 | 79.99055 | 32639 ft | 472 kts | 4° |
| 2026-04-24 19:45 | 8.90313 | 79.99317 | 32972 ft | 471 kts | 4° |
| 2026-04-24 19:46 | 8.93579 | 79.99579 | 33296 ft | 470 kts | 4° |
| 2026-04-24 19:46 | 8.96838 | 79.99841 | 33618 ft | 469 kts | 4° |
| 2026-04-24 19:46 | 9.00096 | 80.00102 | 33914 ft | 469 kts | 4° |
| 2026-04-24 19:46 | 9.03343 | 80.00361 | 34176 ft | 468 kts | 4° |
| 2026-04-24 19:47 | 9.06586 | 80.00619 | 34408 ft | 468 kts | 4° |
| 2026-04-24 19:47 | 9.09832 | 80.00878 | 34638 ft | 468 kts | 4° |
| 2026-04-24 19:47 | 9.13075 | 80.01137 | 34865 ft | 468 kts | 4° |
| 2026-04-24 19:47 | 9.16325 | 80.01397 | 35101 ft | 467 kts | 3° |
| 2026-04-24 19:48 | 9.19561 | 80.01657 | 35338 ft | 467 kts | 3° |
| 2026-04-24 19:48 | 9.22800 | 80.01916 | 35561 ft | 467 kts | 3° |
| 2026-04-24 19:48 | 9.29274 | 80.02434 | 35990 ft | 466 kts | 3° |
| 2026-04-24 19:49 | 9.35741 | 80.02950 | 36392 ft | 466 kts | 3° |
| 2026-04-24 19:49 | 9.42209 | 80.03466 | 36781 ft | 466 kts | 2° |
| 2026-04-24 19:50 | 9.54967 | 80.04496 | 36832 ft | 457 kts | 2° |
| 2026-04-24 19:51 | 9.64475 | 80.05268 | 36834 ft | 457 kts | 2° |
| 2026-04-24 19:52 | 9.73949 | 80.06030 | 36830 ft | 457 kts | 2° |
| 2026-04-24 19:52 | 9.80336 | 80.06542 | 36833 ft | 458 kts | 2° |
| 2026-04-24 19:53 | 9.86684 | 80.07052 | 36825 ft | 458 kts | 2° |
| 2026-04-24 19:54 | 9.96210 | 80.07820 | 36824 ft | 458 kts | 2° |
| 2026-04-24 19:54 | 10.02567 | 80.08240 | 36826 ft | 457 kts | 360° |
| 2026-04-24 19:55 | 10.07854 | 80.08347 | 36823 ft | 457 kts | 358° |
| 2026-04-24 19:55 | 10.15255 | 80.08406 | 36823 ft | 458 kts | 358° |
| 2026-04-24 19:56 | 10.21622 | 80.08478 | 36829 ft | 458 kts | 358° |
| 2026-04-24 19:56 | 10.27993 | 80.08574 | 36827 ft | 458 kts | 358° |
| 2026-04-24 19:57 | 10.34375 | 80.08678 | 36821 ft | 458 kts | 358° |
| 2026-04-24 19:57 | 10.40753 | 80.08783 | 36820 ft | 459 kts | 358° |
| 2026-04-24 19:58 | 10.47137 | 80.08887 | 36818 ft | 459 kts | 358° |
| 2026-04-24 19:58 | 10.53516 | 80.08990 | 36817 ft | 459 kts | 358° |
| 2026-04-24 19:59 | 10.59901 | 80.09092 | 36821 ft | 459 kts | 358° |
| 2026-04-24 19:59 | 10.66286 | 80.09189 | 36819 ft | 459 kts | 358° |
| 2026-04-24 20:00 | 10.72672 | 80.09287 | 36814 ft | 459 kts | 358° |
| 2026-04-24 20:00 | 10.79061 | 80.09418 | 36811 ft | 459 kts | 358° |
| 2026-04-24 20:01 | 10.85453 | 80.09547 | 36814 ft | 459 kts | 358° |
| 2026-04-24 20:01 | 10.91844 | 80.09675 | 36817 ft | 459 kts | 358° |
| 2026-04-24 20:02 | 10.97159 | 80.09777 | 36825 ft | 460 kts | 358° |
| 2026-04-24 20:02 | 11.04638 | 80.09923 | 36814 ft | 460 kts | 358° |
| 2026-04-24 20:03 | 11.11048 | 80.10045 | 36827 ft | 464 kts | 358° |
| 2026-04-24 20:03 | 11.17539 | 80.10168 | 36811 ft | 470 kts | 358° |
| 2026-04-24 20:03 | 11.20823 | 80.10230 | 36434 ft | 471 kts | 358° |
| 2026-04-24 20:04 | 11.24098 | 80.10293 | 35902 ft | 470 kts | 359° |
| 2026-04-24 20:04 | 11.27362 | 80.10356 | 35371 ft | 468 kts | 359° |
| 2026-04-24 20:04 | 11.30619 | 80.10418 | 34787 ft | 468 kts | 359° |
| 2026-04-24 20:04 | 11.33878 | 80.10479 | 34218 ft | 469 kts | 359° |
| 2026-04-24 20:05 | 11.37134 | 80.10543 | 33709 ft | 467 kts | 360° |
| 2026-04-24 20:05 | 11.40374 | 80.10607 | 33195 ft | 464 kts | 0° |
| 2026-04-24 20:05 | 11.43589 | 80.10670 | 32759 ft | 459 kts | 0° |
| 2026-04-24 20:05 | 11.46767 | 80.10731 | 32330 ft | 455 kts | 0° |
| 2026-04-24 20:06 | 11.49913 | 80.10792 | 31904 ft | 450 kts | 0° |
| 2026-04-24 20:06 | 11.53026 | 80.10852 | 31474 ft | 446 kts | 0° |
| 2026-04-24 20:06 | 11.56115 | 80.10911 | 31056 ft | 442 kts | 0° |
| 2026-04-24 20:06 | 11.59174 | 80.10969 | 30642 ft | 438 kts | 0° |
| 2026-04-24 20:07 | 11.61178 | 80.11007 | 30367 ft | 435 kts | 0° |
| 2026-04-24 20:07 | 11.65210 | 80.11083 | 29788 ft | 431 kts | 1° |
| 2026-04-24 20:07 | 11.68195 | 80.11140 | 29289 ft | 427 kts | 1° |
| 2026-04-24 20:07 | 11.71155 | 80.11196 | 28791 ft | 424 kts | 1° |
| 2026-04-24 20:08 | 11.74062 | 80.11251 | 28316 ft | 422 kts | 1° |
| 2026-04-24 20:08 | 11.76985 | 80.11307 | 27854 ft | 418 kts | 1° |
| 2026-04-24 20:08 | 11.79919 | 80.11363 | 27399 ft | 415 kts | 1° |
| 2026-04-24 20:08 | 11.82778 | 80.11418 | 27152 ft | 407 kts | 1° |
| 2026-04-24 20:09 | 11.85529 | 80.11615 | 26941 ft | 397 kts | 11° |
| 2026-04-24 20:09 | 11.88134 | 80.12396 | 26739 ft | 386 kts | 21° |
| 2026-04-24 20:09 | 11.90594 | 80.13409 | 26579 ft | 376 kts | 23° |
| 2026-04-24 20:09 | 11.92973 | 80.14438 | 26375 ft | 368 kts | 24° |
| 2026-04-24 20:10 | 11.95328 | 80.15461 | 25939 ft | 368 kts | 24° |
| 2026-04-24 20:10 | 11.97684 | 80.16481 | 25478 ft | 369 kts | 24° |
| 2026-04-24 20:10 | 12.00049 | 80.17502 | 25023 ft | 369 kts | 24° |
| 2026-04-24 20:10 | 12.02420 | 80.18523 | 24575 ft | 370 kts | 24° |
| 2026-04-24 20:11 | 12.04787 | 80.19540 | 24130 ft | 370 kts | 24° |
| 2026-04-24 20:11 | 12.07177 | 80.20565 | 23526 ft | 375 kts | 24° |
| 2026-04-24 20:11 | 12.09606 | 80.21607 | 22788 ft | 382 kts | 24° |
| 2026-04-24 20:11 | 12.12070 | 80.22661 | 22042 ft | 387 kts | 24° |
| 2026-04-24 20:12 | 12.14568 | 80.23730 | 21310 ft | 391 kts | 24° |
| 2026-04-24 20:12 | 12.17089 | 80.24810 | 20599 ft | 394 kts | 24° |
| 2026-04-24 20:12 | 12.19622 | 80.25900 | 19902 ft | 396 kts | 24° |
| 2026-04-24 20:12 | 12.22170 | 80.26996 | 19217 ft | 398 kts | 24° |
| 2026-04-24 20:13 | 12.24727 | 80.28095 | 18550 ft | 399 kts | 24° |
| 2026-04-24 20:13 | 12.27284 | 80.29194 | 17862 ft | 399 kts | 24° |
| 2026-04-24 20:13 | 12.29844 | 80.30292 | 17105 ft | 399 kts | 24° |
| 2026-04-24 20:13 | 12.32398 | 80.31388 | 16374 ft | 397 kts | 24° |
| 2026-04-24 20:14 | 12.35014 | 80.32289 | 15637 ft | 398 kts | 13° |
| 2026-04-24 20:14 | 12.37724 | 80.32847 | 14867 ft | 398 kts | 12° |
| 2026-04-24 20:14 | 12.40430 | 80.33357 | 14106 ft | 391 kts | 11° |
| 2026-04-24 20:14 | 12.43064 | 80.33842 | 13326 ft | 378 kts | 11° |
| 2026-04-24 20:15 | 12.45612 | 80.34313 | 12500 ft | 367 kts | 12° |
| 2026-04-24 20:15 | 12.48091 | 80.34776 | 11689 ft | 357 kts | 12° |
| 2026-04-24 20:15 | 12.50507 | 80.35230 | 10908 ft | 349 kts | 12° |
| 2026-04-24 20:15 | 12.52854 | 80.35674 | 10425 ft | 333 kts | 12° |
| 2026-04-24 20:16 | 12.55060 | 80.36090 | 10081 ft | 315 kts | 13° |
| 2026-04-24 20:16 | 12.57187 | 80.36493 | 9386 ft | 309 kts | 13° |
| 2026-04-24 20:16 | 12.59309 | 80.36899 | 8399 ft | 312 kts | 13° |
| 2026-04-24 20:16 | 12.61459 | 80.37311 | 7418 ft | 316 kts | 13° |
| 2026-04-24 20:17 | 12.63630 | 80.37727 | 6464 ft | 318 kts | 12° |
| 2026-04-24 20:17 | 12.68001 | 80.38561 | 4639 ft | 318 kts | 12° |
| 2026-04-24 20:17 | 12.70145 | 80.38970 | 4110 ft | 306 kts | 12° |
| 2026-04-24 20:18 | 12.71497 | 80.39228 | 4005 ft | 290 kts | 12° |
| 2026-04-24 20:18 | 12.73959 | 80.39698 | 3988 ft | 255 kts | 12° |
| 2026-04-24 20:18 | 12.75651 | 80.40024 | 3987 ft | 236 kts | 13° |
| 2026-04-24 20:18 | 12.77252 | 80.40335 | 4009 ft | 234 kts | 13° |
| 2026-04-24 20:19 | 12.78825 | 80.40641 | 4023 ft | 221 kts | 13° |
| 2026-04-24 20:19 | 12.80273 | 80.40919 | 4013 ft | 209 kts | 13° |
| 2026-04-24 20:19 | 12.81637 | 80.41181 | 3981 ft | 190 kts | 13° |
| 2026-04-24 20:19 | 12.82877 | 80.41420 | 3997 ft | 181 kts | 14° |
| 2026-04-24 20:20 | 12.84217 | 80.41684 | 4184 ft | 207 kts | 13° |
| 2026-04-24 20:20 | 12.85651 | 80.41962 | 4099 ft | 210 kts | 13° |
| 2026-04-24 20:20 | 12.87075 | 80.42232 | 3991 ft | 206 kts | 13° |
| 2026-04-24 20:20 | 12.88482 | 80.42500 | 4001 ft | 205 kts | 13° |
| 2026-04-24 20:21 | 12.89883 | 80.42767 | 3997 ft | 205 kts | 13° |
| 2026-04-24 20:21 | 12.91282 | 80.43035 | 4013 ft | 204 kts | 13° |
| 2026-04-24 20:21 | 12.92674 | 80.43302 | 4004 ft | 203 kts | 12° |
| 2026-04-24 20:21 | 12.94070 | 80.43569 | 3999 ft | 205 kts | 12° |
| 2026-04-24 20:22 | 12.95474 | 80.43837 | 4003 ft | 205 kts | 13° |
| 2026-04-24 20:22 | 12.96873 | 80.44105 | 3992 ft | 205 kts | 13° |
| 2026-04-24 20:22 | 12.98298 | 80.44227 | 3828 ft | 207 kts | 356° |
| 2026-04-24 20:22 | 12.99649 | 80.43756 | 3674 ft | 207 kts | 329° |
| 2026-04-24 20:23 | 13.00828 | 80.42906 | 3414 ft | 207 kts | 321° |
| 2026-04-24 20:23 | 13.01948 | 80.41986 | 3135 ft | 206 kts | 319° |
| 2026-04-24 20:23 | 13.03055 | 80.41067 | 2858 ft | 204 kts | 319° |
| 2026-04-24 20:23 | 13.04158 | 80.40156 | 2590 ft | 203 kts | 319° |
| 2026-04-24 20:24 | 13.04901 | 80.39546 | 2410 ft | 202 kts | 319° |
| 2026-04-24 20:24 | 13.06001 | 80.38105 | 2288 ft | 186 kts | 281° |
| 2026-04-24 20:24 | 13.06156 | 80.36819 | 2307 ft | 184 kts | 265° |
| 2026-04-24 20:24 | 13.05976 | 80.35518 | 2307 ft | 185 kts | 251° |
| 2026-04-24 20:25 | 13.05538 | 80.34286 | 2301 ft | 183 kts | 244° |
| 2026-04-24 20:25 | 13.05066 | 80.33079 | 2248 ft | 180 kts | 244° |
| 2026-04-24 20:25 | 13.04621 | 80.31902 | 2025 ft | 175 kts | 245° |
| 2026-04-24 20:25 | 13.04189 | 80.30749 | 1840 ft | 171 kts | 244° |
| 2026-04-24 20:26 | 13.03760 | 80.29599 | 1810 ft | 175 kts | 244° |
| 2026-04-24 20:26 | 13.03325 | 80.28432 | 1800 ft | 176 kts | 244° |
| 2026-04-24 20:26 | 13.02899 | 80.27263 | 1771 ft | 171 kts | 244° |
| 2026-04-24 20:26 | 13.02495 | 80.26188 | 1600 ft | 153 kts | 244° |
| 2026-04-24 20:27 | 13.02132 | 80.25221 | 1396 ft | 138 kts | 243° |
| 2026-04-24 20:27 | 13.01793 | 80.24317 | 1234 ft | 135 kts | 243° |
| 2026-04-24 20:27 | 13.01457 | 80.23423 | 1058 ft | 134 kts | 245° |
| 2026-04-24 20:27 | 13.01124 | 80.22527 | 893 ft | 134 kts | 245° |
| 2026-04-24 20:28 | 13.00791 | 80.21636 | 728 ft | 134 kts | 244° |
| 2026-04-24 20:28 | 13.00457 | 80.20742 | 569 ft | 134 kts | 245° |
| 2026-04-24 20:28 | 13.00230 | 80.20134 | 444 ft | 135 kts | 248° |
| 2026-04-24 20:28 | 12.99892 | 80.19233 | 259 ft | 132 kts | 245° |
| 2026-04-24 20:29 | 12.99558 | 80.18333 | 116 ft | 136 kts | 247° |
| 2026-04-24 20:29 | 12.99237 | 80.17500 | 62 ft | 107 kts | 246° |
| 2026-04-24 20:29 | 12.99038 | 80.16957 | 55 ft | 55 kts | 248° |
| 2026-04-24 20:29 | 12.98936 | 80.16683 | 56 ft | 40 kts | 246° |
| 2026-04-24 20:30 | 12.98841 | 80.16463 | 59 ft | 21 kts | 231° |
| 2026-04-24 20:30 | 12.98744 | 80.16356 | 53 ft | 19 kts | 219° |
| 2026-04-24 20:30 | 12.98705 | 80.16324 | 52 ft | 0 kts | 216° |
| 2026-04-24 20:31 | 12.98704 | 80.16323 | 52 ft | 1 kts | 217° |
| 2026-04-24 20:31 | 12.98684 | 80.16308 | 52 ft | 6 kts | 216° |
| 2026-04-24 20:31 | 12.98629 | 80.16263 | 52 ft | 12 kts | 216° |
| 2026-04-24 20:31 | 12.98552 | 80.16200 | 55 ft | 16 kts | 217° |
| 2026-04-24 20:32 | 12.98452 | 80.16160 | 58 ft | 16 kts | 181° |
| 2026-04-24 20:32 | 12.98361 | 80.16159 | 56 ft | 11 kts | 181° |
| 2026-04-24 20:32 | 12.98295 | 80.16178 | 58 ft | 4 kts | 158° |
| 2026-04-24 20:32 | 12.98289 | 80.16181 | 58 ft | 2 kts | 159° |
| 2026-04-24 20:33 | 12.98288 | 80.16181 | 58 ft | 0 kts | 159° |